6.73C
ясно
ясно
Дата и времяТемператураДавление, мм рт.ст.Влажность, %Осадки
МинимумМаксимум
09.06.2023 02:006.73C6.73C75984ясно
09.06.2023 05:007.36C8.62C75981небольшая облачность
09.06.2023 08:0010.18C11.9C75971небольшой дождь
09.06.2023 11:0014.06C14.06C76051небольшой дождь
09.06.2023 14:0016.15C16.15C76044небольшой дождь
09.06.2023 17:0013.94C13.94C76053пасмурно
09.06.2023 20:0011.99C11.99C76168небольшой дождь
09.06.2023 23:009.8C9.8C76189дождь
10.06.2023 02:009.38C9.38C76284небольшой дождь
10.06.2023 05:008.37C8.37C76380облачно с прояснениями
10.06.2023 08:0011.15C11.15C76464ясно
10.06.2023 11:0014.04C14.04C76346небольшая облачность
10.06.2023 14:0015.88C15.88C76341переменная облачность
10.06.2023 17:0015.52C15.52C76345переменная облачность
10.06.2023 20:0013.89C13.89C76356пасмурно
10.06.2023 23:0011.4C11.4C76266пасмурно
11.06.2023 02:0011.17C11.17C76167облачно с прояснениями
11.06.2023 05:0011.64C11.64C75968облачно с прояснениями
11.06.2023 08:0015.46C15.46C75856пасмурно
11.06.2023 11:0017.5C17.5C75650пасмурно
11.06.2023 14:0011.72C11.72C75693дождь
11.06.2023 17:0011.12C11.12C75684дождь
11.06.2023 20:0010.11C10.11C75680небольшой дождь
11.06.2023 23:007.31C7.31C75778небольшой дождь
12.06.2023 02:006.04C6.04C75683облачно с прояснениями
12.06.2023 05:006.46C6.46C75677переменная облачность
12.06.2023 08:006.12C6.12C75776облачно с прояснениями
12.06.2023 11:007.32C7.32C75780небольшой дождь
12.06.2023 14:006.58C6.58C75885небольшой дождь
12.06.2023 17:005.64C5.64C75994небольшой дождь
12.06.2023 20:006.58C6.58C75991небольшой дождь
12.06.2023 23:005.9C5.9C75992небольшой дождь
13.06.2023 02:004.81C4.81C75987облачно с прояснениями
13.06.2023 05:005.66C5.66C75974переменная облачность
13.06.2023 08:009.48C9.48C75953ясно
13.06.2023 11:0012.36C12.36C75940ясно
13.06.2023 14:0014.51C14.51C75937ясно
13.06.2023 17:0013.83C13.83C75945переменная облачность
13.06.2023 20:0012.56C12.56C75954пасмурно
13.06.2023 23:0010.54C10.54C75861пасмурно
Дата и время наблюдения: 09.06.2023 01:38:56